sensor_id;sensor_type;location;lat;lon;timestamp;pressure;altitude;pressure_sealevel;temperature;humidity
64115;BME280;62188;35.640;139.748;2023-04-01T00:01:31;101637.63;;;22.81;23.46
64115;BME280;62188;35.640;139.748;2023-04-01T00:03:57;101635.65;;;22.93;23.61
64115;BME280;62188;35.640;139.748;2023-04-01T00:06:23;101639.18;;;22.37;23.56
64115;BME280;62188;35.640;139.748;2023-04-01T00:08:48;101637.27;;;22.78;23.57
64115;BME280;62188;35.640;139.748;2023-04-01T00:11:14;101635.23;;;23.20;23.27
64115;BME280;62188;35.640;139.748;2023-04-01T00:13:40;101637.94;;;23.05;23.16
64115;BME280;62188;35.640;139.748;2023-04-01T00:16:05;101638.73;;;23.15;23.19
64115;BME280;62188;35.640;139.748;2023-04-01T00:18:30;101637.52;;;23.11;23.18
64115;BME280;62188;35.640;139.748;2023-04-01T00:20:55;101642.42;;;23.20;23.17
64115;BME280;62188;35.640;139.748;2023-04-01T00:23:22;101636.77;;;23.37;23.52
64115;BME280;62188;35.640;139.748;2023-04-01T00:25:47;101636.40;;;23.33;23.10
64115;BME280;62188;35.640;139.748;2023-04-01T00:28:12;101637.30;;;23.39;23.07
64115;BME280;62188;35.640;139.748;2023-04-01T00:30:38;101638.82;;;23.69;23.08
64115;BME280;62188;35.640;139.748;2023-04-01T00:33:03;101641.87;;;23.71;23.00
64115;BME280;62188;35.640;139.748;2023-04-01T00:35:28;101640.26;;;23.54;23.18
64115;BME280;62188;35.640;139.748;2023-04-01T00:37:54;101637.45;;;23.40;23.05
64115;BME280;62188;35.640;139.748;2023-04-01T00:40:27;101636.46;;;23.77;23.26
64115;BME280;62188;35.640;139.748;2023-04-01T00:42:46;101634.61;;;23.55;23.14
64115;BME280;62188;35.640;139.748;2023-04-01T00:45:26;101633.98;;;23.92;22.95
64115;BME280;62188;35.640;139.748;2023-04-01T00:47:36;101631.03;;;23.50;23.56
64115;BME280;62188;35.640;139.748;2023-04-01T00:50:01;101633.73;;;23.54;23.89
64115;BME280;62188;35.640;139.748;2023-04-01T00:52:28;101630.24;;;24.02;24.46
64115;BME280;62188;35.640;139.748;2023-04-01T00:54:57;101627.31;;;23.73;24.24
64115;BME280;62188;35.640;139.748;2023-04-01T00:57:23;101625.90;;;24.05;24.64
64115;BME280;62188;35.640;139.748;2023-04-01T00:59:47;101623.58;;;24.33;23.94
64115;BME280;62188;35.640;139.748;2023-04-01T01:02:12;101623.17;;;23.72;24.23
64115;BME280;62188;35.640;139.748;2023-04-01T01:04:36;101621.53;;;23.85;24.47
64115;BME280;62188;35.640;139.748;2023-04-01T01:07:10;101615.97;;;24.03;24.33
64115;BME280;62188;35.640;139.748;2023-04-01T01:09:35;101612.07;;;23.88;25.11
64115;BME280;62188;35.640;139.748;2023-04-01T01:11:57;101604.92;;;23.73;25.05
64115;BME280;62188;35.640;139.748;2023-04-01T01:14:28;101608.39;;;23.82;25.22
64115;BME280;62188;35.640;139.748;2023-04-01T01:16:45;101604.60;;;23.96;25.34
64115;BME280;62188;35.640;139.748;2023-04-01T01:19:18;101598.19;;;24.07;25.65
64115;BME280;62188;35.640;139.748;2023-04-01T01:21:42;101599.96;;;24.19;25.68
64115;BME280;62188;35.640;139.748;2023-04-01T01:24:12;101596.37;;;24.25;26.32
64115;BME280;62188;35.640;139.748;2023-04-01T01:28:57;101595.35;;;24.18;26.74
64115;BME280;62188;35.640;139.748;2023-04-01T01:31:19;101598.40;;;24.47;26.78
64115;BME280;62188;35.640;139.748;2023-04-01T01:33:52;101595.71;;;24.19;27.25
64115;BME280;62188;35.640;139.748;2023-04-01T01:36:08;101595.21;;;23.94;27.75
64115;BME280;62188;35.640;139.748;2023-04-01T01:38:34;101591.00;;;23.88;27.90
64115;BME280;62188;35.640;139.748;2023-04-01T01:40:58;101585.61;;;23.93;27.79
64115;BME280;62188;35.640;139.748;2023-04-01T01:43:25;101583.91;;;23.75;28.07
64115;BME280;62188;35.640;139.748;2023-04-01T01:45:50;101578.66;;;23.87;27.82
64115;BME280;62188;35.640;139.748;2023-04-01T01:48:13;101578.34;;;23.69;27.83
64115;BME280;62188;35.640;139.748;2023-04-01T01:50:38;101573.73;;;23.98;27.77
64115;BME280;62188;35.640;139.748;2023-04-01T01:53:07;101574.74;;;24.13;27.33
64115;BME280;62188;35.640;139.748;2023-04-01T01:55:31;101576.96;;;24.25;27.21
64115;BME280;62188;35.640;139.748;2023-04-01T01:57:56;101576.20;;;24.28;26.84
64115;BME280;62188;35.640;139.748;2023-04-01T02:00:20;101577.01;;;24.36;26.59
64115;BME280;62188;35.640;139.748;2023-04-01T02:02:48;101576.46;;;24.43;26.76
64115;BME280;62188;35.640;139.748;2023-04-01T02:05:18;101575.33;;;24.71;26.66
64115;BME280;62188;35.640;139.748;2023-04-01T02:07:37;101572.38;;;24.82;26.67
64115;BME280;62188;35.640;139.748;2023-04-01T02:10:02;101563.15;;;24.97;26.89
64115;BME280;62188;35.640;139.748;2023-04-01T02:12:28;101563.82;;;25.10;26.74
64115;BME280;62188;35.640;139.748;2023-04-01T02:14:54;101559.86;;;24.96;26.68
64115;BME280;62188;35.640;139.748;2023-04-01T02:17:19;101553.16;;;24.53;26.73
64115;BME280;62188;35.640;139.748;2023-04-01T02:19:50;101552.20;;;24.86;26.90
64115;BME280;62188;35.640;139.748;2023-04-01T02:22:11;101550.38;;;24.91;27.10
64115;BME280;62188;35.640;139.748;2023-04-01T02:24:36;101550.62;;;24.99;26.66
64115;BME280;62188;35.640;139.748;2023-04-01T02:26:59;101546.17;;;25.30;26.82
64115;BME280;62188;35.640;139.748;2023-04-01T02:29:25;101542.56;;;25.09;26.52
64115;BME280;62188;35.640;139.748;2023-04-01T02:31:51;101539.69;;;24.85;26.57
64115;BME280;62188;35.640;139.748;2023-04-01T02:34:16;101537.70;;;24.57;26.91
64115;BME280;62188;35.640;139.748;2023-04-01T02:36:42;101530.82;;;25.33;26.72
64115;BME280;62188;35.640;139.748;2023-04-01T02:39:07;101530.70;;;25.10;26.16
64115;BME280;62188;35.640;139.748;2023-04-01T02:41:33;101526.91;;;25.37;26.12
64115;BME280;62188;35.640;139.748;2023-04-01T02:43:57;101531.48;;;25.12;26.20
64115;BME280;62188;35.640;139.748;2023-04-01T02:46:23;101529.87;;;25.43;25.88
64115;BME280;62188;35.640;139.748;2023-04-01T02:48:48;101530.29;;;25.48;25.59
64115;BME280;62188;35.640;139.748;2023-04-01T02:51:14;101529.11;;;25.25;25.64
64115;BME280;62188;35.640;139.748;2023-04-01T02:53:38;101526.84;;;25.22;25.88
64115;BME280;62188;35.640;139.748;2023-04-01T02:56:04;101525.05;;;25.13;25.88
64115;BME280;62188;35.640;139.748;2023-04-01T02:58:30;101519.96;;;25.10;25.69
64115;BME280;62188;35.640;139.748;2023-04-01T03:00:55;101516.01;;;24.68;25.87
64115;BME280;62188;35.640;139.748;2023-04-01T03:03:20;101512.29;;;24.86;25.81
64115;BME280;62188;35.640;139.748;2023-04-01T03:05:46;101508.80;;;25.20;25.73
64115;BME280;62188;35.640;139.748;2023-04-01T03:08:11;101506.22;;;25.62;24.97
64115;BME280;62188;35.640;139.748;2023-04-01T03:10:37;101507.34;;;25.50;25.17
64115;BME280;62188;35.640;139.748;2023-04-01T03:13:02;101505.46;;;25.32;25.23
64115;BME280;62188;35.640;139.748;2023-04-01T03:15:28;101500.88;;;25.24;25.29
64115;BME280;62188;35.640;139.748;2023-04-01T03:17:53;101495.58;;;25.46;25.19
64115;BME280;62188;35.640;139.748;2023-04-01T03:20:18;101498.54;;;25.32;25.53
64115;BME280;62188;35.640;139.748;2023-04-01T03:22:44;101495.19;;;25.01;26.58
64115;BME280;62188;35.640;139.748;2023-04-01T03:25:11;101490.09;;;25.05;27.11
64115;BME280;62188;35.640;139.748;2023-04-01T03:27:34;101483.05;;;24.70;27.62
64115;BME280;62188;35.640;139.748;2023-04-01T03:29:59;101480.59;;;24.60;28.10
64115;BME280;62188;35.640;139.748;2023-04-01T03:32:25;101477.13;;;24.26;28.66
64115;BME280;62188;35.640;139.748;2023-04-01T03:34:51;101476.43;;;24.42;28.72
64115;BME280;62188;35.640;139.748;2023-04-01T03:37:16;101479.44;;;24.60;28.86
64115;BME280;62188;35.640;139.748;2023-04-01T03:39:41;101470.39;;;24.55;28.92
64115;BME280;62188;35.640;139.748;2023-04-01T03:42:07;101464.77;;;24.71;28.72
64115;BME280;62188;35.640;139.748;2023-04-01T03:44:33;101464.22;;;24.85;28.56
64115;BME280;62188;35.640;139.748;2023-04-01T03:46:58;101461.73;;;24.83;28.41
64115;BME280;62188;35.640;139.748;2023-04-01T03:49:24;101456.78;;;24.76;29.38
64115;BME280;62188;35.640;139.748;2023-04-01T03:51:49;101460.26;;;24.90;28.66
64115;BME280;62188;35.640;139.748;2023-04-01T03:54:15;101455.10;;;24.87;28.28
64115;BME280;62188;35.640;139.748;2023-04-01T03:56:41;101451.70;;;24.72;28.18
64115;BME280;62188;35.640;139.748;2023-04-01T03:59:07;101447.14;;;24.60;28.26
64115;BME280;62188;35.640;139.748;2023-04-01T04:01:31;101445.08;;;24.76;27.74
64115;BME280;62188;35.640;139.748;2023-04-01T04:03:56;101439.21;;;24.47;27.27
64115;BME280;62188;35.640;139.748;2023-04-01T04:06:22;101438.38;;;24.73;27.00
64115;BME280;62188;35.640;139.748;2023-04-01T04:08:47;101434.79;;;24.68;26.71
64115;BME280;62188;35.640;139.748;2023-04-01T04:11:13;101427.75;;;24.43;26.75
64115;BME280;62188;35.640;139.748;2023-04-01T04:13:38;101429.81;;;24.65;27.02
64115;BME280;62188;35.640;139.748;2023-04-01T04:16:04;101419.15;;;24.80;26.50
64115;BME280;62188;35.640;139.748;2023-04-01T04:18:29;101413.85;;;24.60;26.70
64115;BME280;62188;35.640;139.748;2023-04-01T04:20:55;101418.57;;;24.88;27.38
64115;BME280;62188;35.640;139.748;2023-04-01T04:23:20;101419.00;;;24.87;26.51
64115;BME280;62188;35.640;139.748;2023-04-01T04:25:55;101417.20;;;24.62;25.61
64115;BME280;62188;35.640;139.748;2023-04-01T04:28:10;101418.84;;;24.21;25.75
64115;BME280;62188;35.640;139.748;2023-04-01T04:30:36;101413.24;;;24.21;27.24
64115;BME280;62188;35.640;139.748;2023-04-01T04:33:01;101415.61;;;24.29;26.24
64115;BME280;62188;35.640;139.748;2023-04-01T04:35:26;101412.00;;;23.96;26.35
64115;BME280;62188;35.640;139.748;2023-04-01T04:37:52;101406.73;;;24.21;25.86
64115;BME280;62188;35.640;139.748;2023-04-01T04:40:18;101397.19;;;24.23;26.09
64115;BME280;62188;35.640;139.748;2023-04-01T04:42:44;101400.35;;;24.33;25.97
64115;BME280;62188;35.640;139.748;2023-04-01T04:45:10;101395.84;;;24.20;26.08
64115;BME280;62188;35.640;139.748;2023-04-01T04:47:34;101400.92;;;23.76;25.83
64115;BME280;62188;35.640;139.748;2023-04-01T04:50:00;101402.31;;;23.47;26.19
64115;BME280;62188;35.640;139.748;2023-04-01T04:52:25;101401.67;;;23.45;26.11
64115;BME280;62188;35.640;139.748;2023-04-01T04:54:51;101397.14;;;23.00;26.71
64115;BME280;62188;35.640;139.748;2023-04-01T04:57:16;101400.71;;;23.16;27.07
64115;BME280;62188;35.640;139.748;2023-04-01T04:59:42;101399.24;;;23.11;27.41
64115;BME280;62188;35.640;139.748;2023-04-01T05:02:06;101395.47;;;22.90;27.83
64115;BME280;62188;35.640;139.748;2023-04-01T05:04:36;101398.48;;;22.57;27.82
64115;BME280;62188;35.640;139.748;2023-04-01T05:06:58;101392.09;;;22.53;27.91
64115;BME280;62188;35.640;139.748;2023-04-01T05:09:23;101399.91;;;22.15;28.28
64115;BME280;62188;35.640;139.748;2023-04-01T05:11:48;101397.99;;;22.28;28.82
64115;BME280;62188;35.640;139.748;2023-04-01T05:14:15;101400.13;;;21.96;29.34
64115;BME280;62188;35.640;139.748;2023-04-01T05:16:40;101402.48;;;21.96;29.53
64115;BME280;62188;35.640;139.748;2023-04-01T05:19:05;101397.47;;;22.08;29.66
64115;BME280;62188;35.640;139.748;2023-04-01T05:21:31;101394.30;;;22.20;29.59
64115;BME280;62188;35.640;139.748;2023-04-01T05:23:56;101407.03;;;21.55;30.01
64115;BME280;62188;35.640;139.748;2023-04-01T05:26:23;101398.56;;;21.59;30.07
64115;BME280;62188;35.640;139.748;2023-04-01T05:28:47;101402.66;;;21.56;30.37
64115;BME280;62188;35.640;139.748;2023-04-01T05:31:13;101390.03;;;21.26;30.51
64115;BME280;62188;35.640;139.748;2023-04-01T05:33:39;101391.89;;;21.55;30.53
64115;BME280;62188;35.640;139.748;2023-04-01T05:36:10;101390.80;;;21.53;30.65
64115;BME280;62188;35.640;139.748;2023-04-01T05:38:30;101391.88;;;21.48;31.07
64115;BME280;62188;35.640;139.748;2023-04-01T05:41:00;101391.49;;;21.28;31.00
64115;BME280;62188;35.640;139.748;2023-04-01T05:43:20;101393.73;;;21.65;30.71
64115;BME280;62188;35.640;139.748;2023-04-01T05:45:47;101388.81;;;21.34;30.59
64115;BME280;62188;35.640;139.748;2023-04-01T05:48:12;101402.36;;;21.42;30.64
64115;BME280;62188;35.640;139.748;2023-04-01T05:50:39;101398.57;;;21.41;30.60
64115;BME280;62188;35.640;139.748;2023-04-01T05:53:03;101397.41;;;21.93;30.69
64115;BME280;62188;35.640;139.748;2023-04-01T05:55:29;101401.48;;;21.65;30.64
64115;BME280;62188;35.640;139.748;2023-04-01T05:57:54;101401.60;;;21.27;30.75
64115;BME280;62188;35.640;139.748;2023-04-01T06:00:20;101402.26;;;21.33;30.67
64115;BME280;62188;35.640;139.748;2023-04-01T06:02:45;101400.69;;;21.32;30.64
64115;BME280;62188;35.640;139.748;2023-04-01T06:05:16;101400.15;;;21.29;30.72
64115;BME280;62188;35.640;139.748;2023-04-01T06:07:36;101404.79;;;21.45;30.34
64115;BME280;62188;35.640;139.748;2023-04-01T06:10:05;101413.24;;;21.18;30.61
64115;BME280;62188;35.640;139.748;2023-04-01T06:12:40;101408.88;;;21.23;30.50
64115;BME280;62188;35.640;139.748;2023-04-01T06:14:57;101410.23;;;21.14;30.90
64115;BME280;62188;35.640;139.748;2023-04-01T06:17:26;101404.25;;;20.81;31.08
64115;BME280;62188;35.640;139.748;2023-04-01T06:19:50;101404.07;;;20.99;31.26
64115;BME280;62188;35.640;139.748;2023-04-01T06:22:19;101411.74;;;21.02;31.42
64115;BME280;62188;35.640;139.748;2023-04-01T06:24:45;101419.70;;;20.75;31.25
64115;BME280;62188;35.640;139.748;2023-04-01T06:27:05;101402.49;;;20.84;31.55
64115;BME280;62188;35.640;139.748;2023-04-01T06:32:02;101413.38;;;20.77;31.49
64115;BME280;62188;35.640;139.748;2023-04-01T06:34:33;101417.62;;;20.59;32.11
64115;BME280;62188;35.640;139.748;2023-04-01T06:36:52;101415.70;;;20.97;31.69
64115;BME280;62188;35.640;139.748;2023-04-01T06:41:44;101417.55;;;20.82;32.53
64115;BME280;62188;35.640;139.748;2023-04-01T06:44:06;101411.82;;;20.91;32.64
64115;BME280;62188;35.640;139.748;2023-04-01T06:46:30;101404.01;;;20.84;32.97
64115;BME280;62188;35.640;139.748;2023-04-01T06:49:01;101404.81;;;20.90;33.02
64115;BME280;62188;35.640;139.748;2023-04-01T06:51:23;101410.19;;;20.86;32.86
64115;BME280;62188;35.640;139.748;2023-04-01T06:53:43;101409.61;;;20.72;33.08
64115;BME280;62188;35.640;139.748;2023-04-01T06:56:08;101415.63;;;20.62;33.56
64115;BME280;62188;35.640;139.748;2023-04-01T06:58:36;101413.91;;;20.76;33.49
64115;BME280;62188;35.640;139.748;2023-04-01T07:00:59;101412.98;;;20.59;33.63
64115;BME280;62188;35.640;139.748;2023-04-01T07:03:29;101418.50;;;20.88;33.72
64115;BME280;62188;35.640;139.748;2023-04-01T07:05:47;101413.05;;;20.88;33.65
64115;BME280;62188;35.640;139.748;2023-04-01T07:08:16;101408.94;;;20.90;33.55
64115;BME280;62188;35.640;139.748;2023-04-01T07:10:44;101407.16;;;20.85;33.49
64115;BME280;62188;35.640;139.748;2023-04-01T07:13:09;101408.19;;;20.77;33.44
64115;BME280;62188;35.640;139.748;2023-04-01T07:15:33;101406.08;;;20.61;33.70
64115;BME280;62188;35.640;139.748;2023-04-01T07:17:58;101408.80;;;20.75;33.65
64115;BME280;62188;35.640;139.748;2023-04-01T07:20:24;101409.34;;;20.81;33.61
64115;BME280;62188;35.640;139.748;2023-04-01T07:22:50;101406.63;;;20.75;33.51
64115;BME280;62188;35.640;139.748;2023-04-01T07:25:15;101413.35;;;20.51;33.43
64115;BME280;62188;35.640;139.748;2023-04-01T07:27:38;101415.02;;;20.40;33.49
64115;BME280;62188;35.640;139.748;2023-04-01T07:30:12;101411.36;;;20.48;33.69
64115;BME280;62188;35.640;139.748;2023-04-01T07:32:38;101407.08;;;20.42;33.80
64115;BME280;62188;35.640;139.748;2023-04-01T07:35:07;101410.26;;;20.53;33.82
64115;BME280;62188;35.640;139.748;2023-04-01T07:37:26;101409.57;;;20.65;33.89
64115;BME280;62188;35.640;139.748;2023-04-01T07:39:51;101407.97;;;20.79;33.66
64115;BME280;62188;35.640;139.748;2023-04-01T07:42:16;101413.17;;;20.84;33.88
64115;BME280;62188;35.640;139.748;2023-04-01T07:44:42;101416.33;;;20.72;34.10
64115;BME280;62188;35.640;139.748;2023-04-01T07:47:13;101420.07;;;20.67;34.22
64115;BME280;62188;35.640;139.748;2023-04-01T07:49:34;101421.54;;;20.57;34.36
64115;BME280;62188;35.640;139.748;2023-04-01T07:51:59;101423.45;;;20.46;34.44
64115;BME280;62188;35.640;139.748;2023-04-01T07:54:24;101430.63;;;20.55;34.32
64115;BME280;62188;35.640;139.748;2023-04-01T07:56:48;101430.41;;;20.49;34.54
64115;BME280;62188;35.640;139.748;2023-04-01T07:59:13;101431.39;;;20.79;34.70
64115;BME280;62188;35.640;139.748;2023-04-01T08:01:40;101433.68;;;20.77;34.97
64115;BME280;62188;35.640;139.748;2023-04-01T08:04:17;101436.32;;;20.48;35.39
64115;BME280;62188;35.640;139.748;2023-04-01T08:06:31;101441.53;;;20.12;36.01
64115;BME280;62188;35.640;139.748;2023-04-01T08:08:58;101438.49;;;20.24;36.53
64115;BME280;62188;35.640;139.748;2023-04-01T08:11:25;101437.79;;;20.38;36.81
64115;BME280;62188;35.640;139.748;2023-04-01T08:13:47;101432.33;;;20.24;36.70
64115;BME280;62188;35.640;139.748;2023-04-01T08:16:14;101434.32;;;20.14;37.01
64115;BME280;62188;35.640;139.748;2023-04-01T08:18:40;101438.00;;;20.09;37.33
64115;BME280;62188;35.640;139.748;2023-04-01T08:21:00;101434.92;;;19.89;37.58
64115;BME280;62188;35.640;139.748;2023-04-01T08:23:25;101438.50;;;20.22;37.73
64115;BME280;62188;35.640;139.748;2023-04-01T08:25:56;101442.93;;;20.07;37.72
64115;BME280;62188;35.640;139.748;2023-04-01T08:28:19;101439.15;;;20.17;38.03
64115;BME280;62188;35.640;139.748;2023-04-01T08:30:44;101447.37;;;19.69;38.12
64115;BME280;62188;35.640;139.748;2023-04-01T08:33:11;101446.33;;;20.07;38.32
64115;BME280;62188;35.640;139.748;2023-04-01T08:35:34;101448.87;;;19.61;38.50
64115;BME280;62188;35.640;139.748;2023-04-01T08:37:59;101456.88;;;20.10;38.28
64115;BME280;62188;35.640;139.748;2023-04-01T08:40:54;101453.01;;;19.72;38.17
64115;BME280;62188;35.640;139.748;2023-04-01T08:43:00;101453.41;;;19.33;38.17
64115;BME280;62188;35.640;139.748;2023-04-01T08:45:22;101454.18;;;19.59;38.20
64115;BME280;62188;35.640;139.748;2023-04-01T08:47:47;101460.01;;;19.60;37.62
64115;BME280;62188;35.640;139.748;2023-04-01T08:52:35;101465.07;;;19.27;37.13
64115;BME280;62188;35.640;139.748;2023-04-01T08:55:10;101470.51;;;18.94;37.31
64115;BME280;62188;35.640;139.748;2023-04-01T08:57:25;101471.85;;;18.98;36.94
64115;BME280;62188;35.640;139.748;2023-04-01T08:59:52;101476.25;;;19.02;36.96
64115;BME280;62188;35.640;139.748;2023-04-01T09:04:51;101480.42;;;19.08;37.37
64115;BME280;62188;35.640;139.748;2023-04-01T09:07:12;101487.97;;;19.24;37.52
64115;BME280;62188;35.640;139.748;2023-04-01T09:14:27;101484.66;;;19.19;34.95
64115;BME280;62188;35.640;139.748;2023-04-01T09:19:22;101495.12;;;19.12;34.08
64115;BME280;62188;35.640;139.748;2023-04-01T09:21:51;101495.94;;;19.40;33.99
64115;BME280;62188;35.640;139.748;2023-04-01T09:26:39;101495.38;;;19.22;33.25
64115;BME280;62188;35.640;139.748;2023-04-01T09:28:57;101498.59;;;19.15;32.98
64115;BME280;62188;35.640;139.748;2023-04-01T09:31:31;101497.55;;;19.05;32.81
64115;BME280;62188;35.640;139.748;2023-04-01T09:36:18;101502.43;;;19.10;32.27
64115;BME280;62188;35.640;139.748;2023-04-01T09:38:42;101503.29;;;19.22;31.77
64115;BME280;62188;35.640;139.748;2023-04-01T09:41:05;101502.56;;;19.62;31.35
64115;BME280;62188;35.640;139.748;2023-04-01T09:43:31;101507.20;;;19.50;31.06
64115;BME280;62188;35.640;139.748;2023-04-01T09:48:33;101509.98;;;19.55;30.44
64115;BME280;62188;35.640;139.748;2023-04-01T09:50:50;101511.64;;;19.63;30.09
64115;BME280;62188;35.640;139.748;2023-04-01T09:53:23;101515.09;;;19.65;29.37
64115;BME280;62188;35.640;139.748;2023-04-01T09:58:06;101518.30;;;19.76;33.20
64115;BME280;62188;35.640;139.748;2023-04-01T10:05:30;101535.72;;;20.10;31.99
64115;BME280;62188;35.640;139.748;2023-04-01T10:10:22;101543.44;;;20.19;30.21
64115;BME280;62188;35.640;139.748;2023-04-01T10:12:43;101543.21;;;19.93;29.89
64115;BME280;62188;35.640;139.748;2023-04-01T10:15:13;101545.68;;;20.05;29.77
64115;BME280;62188;35.640;139.748;2023-04-01T10:20:05;101553.27;;;20.03;30.74
64115;BME280;62188;35.640;139.748;2023-04-01T10:22:21;101556.50;;;20.05;30.82
64115;BME280;62188;35.640;139.748;2023-04-01T10:24:52;101560.12;;;20.55;31.03
64115;BME280;62188;35.640;139.748;2023-04-01T10:27:21;101563.47;;;20.34;31.36
64115;BME280;62188;35.640;139.748;2023-04-01T10:32:12;101566.16;;;20.26;32.38
64115;BME280;62188;35.640;139.748;2023-04-01T10:36:52;101575.01;;;20.04;32.57
64115;BME280;62188;35.640;139.748;2023-04-01T11:13:28;101613.88;;;19.88;33.57
64115;BME280;62188;35.640;139.748;2023-04-01T11:15:41;101612.22;;;20.06;33.20
64115;BME280;62188;35.640;139.748;2023-04-01T11:22:57;101622.63;;;20.08;32.69
64115;BME280;62188;35.640;139.748;2023-04-01T11:25:22;101619.30;;;20.13;32.06
64115;BME280;62188;35.640;139.748;2023-04-01T11:27:51;101622.86;;;20.12;32.28
64115;BME280;62188;35.640;139.748;2023-04-01T11:30:15;101619.59;;;20.46;32.07
64115;BME280;62188;35.640;139.748;2023-04-01T11:37:31;101626.16;;;19.74;32.03
64115;BME280;62188;35.640;139.748;2023-04-01T11:39:56;101620.36;;;20.00;31.99
64115;BME280;62188;35.640;139.748;2023-04-01T11:42:23;101616.95;;;20.28;32.13
64115;BME280;62188;35.640;139.748;2023-04-01T11:44:46;101617.10;;;20.04;32.23
64115;BME280;62188;35.640;139.748;2023-04-01T11:47:19;101619.69;;;20.05;32.45
64115;BME280;62188;35.640;139.748;2023-04-01T11:49:38;101618.11;;;20.09;32.93
64115;BME280;62188;35.640;139.748;2023-04-01T11:52:05;101621.19;;;20.10;32.61
64115;BME280;62188;35.640;139.748;2023-04-01T11:54:32;101617.76;;;20.04;33.11
64115;BME280;62188;35.640;139.748;2023-04-01T11:56:55;101615.54;;;19.99;32.64
64115;BME280;62188;35.640;139.748;2023-04-01T12:01:46;101614.50;;;19.92;32.84
64115;BME280;62188;35.640;139.748;2023-04-01T12:06:36;101619.28;;;20.17;32.79
64115;BME280;62188;35.640;139.748;2023-04-01T12:09:02;101617.44;;;20.03;32.78
64115;BME280;62188;35.640;139.748;2023-04-01T12:11:27;101617.09;;;20.18;32.72
64115;BME280;62188;35.640;139.748;2023-04-01T12:13:53;101615.73;;;19.96;32.66
64115;BME280;62188;35.640;139.748;2023-04-01T12:16:26;101615.53;;;20.27;32.66
64115;BME280;62188;35.640;139.748;2023-04-01T12:18:42;101616.50;;;20.10;32.37
64115;BME280;62188;35.640;139.748;2023-04-01T12:21:13;101617.79;;;20.06;32.40
64115;BME280;62188;35.640;139.748;2023-04-01T12:23:45;101615.74;;;19.98;32.41
64115;BME280;62188;35.640;139.748;2023-04-01T12:28:25;101612.86;;;19.93;32.37
64115;BME280;62188;35.640;139.748;2023-04-01T12:30:54;101621.69;;;19.86;32.35
64115;BME280;62188;35.640;139.748;2023-04-01T12:35:44;101646.31;;;19.78;32.71
64115;BME280;62188;35.640;139.748;2023-04-01T12:38:15;101652.81;;;19.87;32.77
64115;BME280;62188;35.640;139.748;2023-04-01T12:43:08;101659.60;;;19.94;31.97
64115;BME280;62188;35.640;139.748;2023-04-01T12:45:28;101661.32;;;19.98;32.12
64115;BME280;62188;35.640;139.748;2023-04-01T12:50:29;101660.91;;;20.12;31.49
64115;BME280;62188;35.640;139.748;2023-04-01T12:52:44;101662.81;;;20.42;31.47
64115;BME280;62188;35.640;139.748;2023-04-01T12:55:17;101667.27;;;20.17;31.23
64115;BME280;62188;35.640;139.748;2023-04-01T12:57:33;101668.60;;;19.89;31.08
64115;BME280;62188;35.640;139.748;2023-04-01T13:00:03;101667.79;;;20.19;31.08
64115;BME280;62188;35.640;139.748;2023-04-01T13:02:22;101666.00;;;20.24;30.83
64115;BME280;62188;35.640;139.748;2023-04-01T13:04:54;101662.19;;;20.15;30.44
64115;BME280;62188;35.640;139.748;2023-04-01T13:07:16;101664.90;;;20.17;30.56
64115;BME280;62188;35.640;139.748;2023-04-01T13:09:40;101667.16;;;20.22;30.52
64115;BME280;62188;35.640;139.748;2023-04-01T13:12:10;101665.32;;;20.26;30.50
64115;BME280;62188;35.640;139.748;2023-04-01T13:14:35;101662.58;;;20.23;30.28
64115;BME280;62188;35.640;139.748;2023-04-01T13:16:54;101661.63;;;20.25;30.30
64115;BME280;62188;35.640;139.748;2023-04-01T13:19:19;101659.64;;;20.14;30.09
64115;BME280;62188;35.640;139.748;2023-04-01T13:21:51;101653.42;;;20.00;30.17
64115;BME280;62188;35.640;139.748;2023-04-01T13:24:11;101654.16;;;20.21;30.12
64115;BME280;62188;35.640;139.748;2023-04-01T13:26:37;101653.23;;;20.20;30.11
64115;BME280;62188;35.640;139.748;2023-04-01T13:29:01;101649.22;;;19.94;29.96
64115;BME280;62188;35.640;139.748;2023-04-01T13:31:31;101648.88;;;19.95;29.86
64115;BME280;62188;35.640;139.748;2023-04-01T13:33:54;101645.83;;;19.89;29.88
64115;BME280;62188;35.640;139.748;2023-04-01T13:36:23;101646.88;;;19.88;29.85
64115;BME280;62188;35.640;139.748;2023-04-01T13:38:52;101645.87;;;19.91;29.83
64115;BME280;62188;35.640;139.748;2023-04-01T13:41:20;101647.20;;;20.12;29.78
64115;BME280;62188;35.640;139.748;2023-04-01T13:43:34;101646.31;;;19.86;29.86
64115;BME280;62188;35.640;139.748;2023-04-01T13:48:30;101641.18;;;19.77;29.77
64115;BME280;62188;35.640;139.748;2023-04-01T13:50:56;101643.00;;;19.68;29.92
64115;BME280;62188;35.640;139.748;2023-04-01T13:55:49;101645.27;;;19.75;29.70
64115;BME280;62188;35.640;139.748;2023-04-01T13:58:19;101649.20;;;19.94;29.93
64115;BME280;62188;35.640;139.748;2023-04-01T14:00:39;101650.85;;;19.91;29.89
64115;BME280;62188;35.640;139.748;2023-04-01T14:03:06;101651.06;;;19.54;29.82
64115;BME280;62188;35.640;139.748;2023-04-01T14:07:52;101649.50;;;20.07;30.03
64115;BME280;62188;35.640;139.748;2023-04-01T14:10:18;101648.00;;;19.87;29.89